Time;durP1;ratioP1;P1;durP2;ratioP2;P2;SDS_P1;SDS_P2;PMS_P1;PMS_P2;Temp;Humidity;BMP_temperature;BMP_pressure;BME280_temperature;BME280_humidity;BME280_pressure;Samples;Min_cycle;Max_cycle;Signal;HPM_P1;HPM_P2
2024/03/26 00:02:06;;;;;;;10.00;4.55;;;;;;;11.77;48.40;99872.34;5051673;28;20146;-46
2024/03/26 00:04:31;;;;;;;12.65;4.28;;;;;;;11.67;48.52;99870.63;5050831;28;20033;-44
2024/03/26 00:06:57;;;;;;;11.27;4.57;;;;;;;11.40;49.04;99869.91;5052268;28;20037;-47
2024/03/26 00:09:22;;;;;;;11.57;4.75;;;;;;;12.02;47.46;99867.75;5052340;28;20514;-45
2024/03/26 00:11:48;;;;;;;11.38;4.65;;;;;;;11.64;48.53;99870.66;5050510;28;20445;-44
2024/03/26 00:14:13;;;;;;;11.23;4.70;;;;;;;11.56;48.86;99872.44;5049982;28;20061;-45
2024/03/26 00:16:39;;;;;;;11.15;4.65;;;;;;;11.44;48.73;99862.94;5051691;28;20048;-45
2024/03/26 00:19:04;;;;;;;11.25;4.78;;;;;;;11.47;49.34;99862.91;5053827;28;20075;-45
2024/03/26 00:21:29;;;;;;;11.52;4.80;;;;;;;11.86;47.83;99855.72;5056762;28;20472;-45
2024/03/26 00:23:55;;;;;;;11.75;4.68;;;;;;;11.53;48.90;99848.97;5056168;28;20037;-45
2024/03/26 00:26:20;;;;;;;10.27;4.60;;;;;;;11.33;49.08;99849.97;5054036;28;20025;-45
2024/03/26 00:28:45;;;;;;;12.77;4.65;;;;;;;11.62;48.41;99841.94;5053334;28;20510;-45
2024/03/26 00:31:10;;;;;;;11.75;4.68;;;;;;;11.48;49.23;99841.16;5051908;28;20029;-44
2024/03/26 00:33:36;;;;;;;10.23;4.57;;;;;;;11.12;49.83;99838.78;5050868;28;20403;-44
2024/03/26 00:36:02;;;;;;;10.55;4.72;;;;;;;11.10;49.85;99830.13;5052034;28;20491;-46
2024/03/26 00:38:27;;;;;;;10.52;4.82;;;;;;;11.51;48.75;99815.06;5050731;28;20094;-46
2024/03/26 00:40:52;;;;;;;12.75;4.72;;;;;;;11.41;49.34;99808.16;5051137;28;20119;-45
2024/03/26 00:43:18;;;;;;;9.38;4.72;;;;;;;11.02;49.95;99818.84;5052306;28;20036;-47
2024/03/26 00:45:44;;;;;;;11.77;4.43;;;;;;;11.34;48.97;99804.72;5052822;28;20495;-46
2024/03/26 00:48:10;;;;;;;16.85;4.72;;;;;;;11.24;49.22;99807.41;5050782;28;20674;-45
2024/03/26 00:50:35;;;;;;;11.68;4.88;;;;;;;11.48;48.77;99802.00;5049085;28;20040;-45
2024/03/26 00:53:01;;;;;;;15.05;4.57;;;;;;;11.03;49.69;99802.31;5050470;28;20029;-48
2024/03/26 00:55:26;;;;;;;14.32;4.35;;;;;;;10.94;49.81;99796.28;5050279;28;20510;-44
2024/03/26 00:57:51;;;;;;;12.75;4.70;;;;;;;11.27;49.13;99792.63;5049930;28;20040;-46
2024/03/26 01:00:17;;;;;;;9.90;4.25;;;;;;;11.02;49.78;99792.75;5050417;28;20032;-47
2024/03/26 01:02:42;;;;;;;17.35;4.60;;;;;;;11.08;49.31;99796.22;5049982;28;20053;-43
2024/03/26 01:05:07;;;;;;;13.13;4.70;;;;;;;11.14;49.16;99795.31;5050079;28;20072;-45
2024/03/26 01:07:33;;;;;;;15.25;4.38;;;;;;;11.41;48.81;99782.06;5048419;28;20442;-45
2024/03/26 01:09:58;;;;;;;11.32;4.20;;;;;;;11.17;49.72;99784.84;5050368;28;20040;-47
2024/03/26 01:12:23;;;;;;;15.00;4.85;;;;;;;10.96;49.58;99773.69;5050194;28;20041;-46
2024/03/26 01:14:49;;;;;;;10.57;4.28;;;;;;;11.18;49.13;99773.53;5048451;28;20029;-48
2024/03/26 01:17:14;;;;;;;11.45;4.47;;;;;;;11.32;48.74;99774.31;5049469;28;20548;-45
2024/03/26 01:19:39;;;;;;;10.00;4.05;;;;;;;11.51;48.32;99773.28;5050007;28;20037;-50
2024/03/26 01:22:04;;;;;;;10.75;4.28;;;;;;;11.21;49.00;99760.47;5050605;28;20056;-44
2024/03/26 01:24:30;;;;;;;16.73;4.18;;;;;;;10.89;49.27;99765.88;5048808;28;20199;-49
2024/03/26 01:26:55;;;;;;;9.50;4.30;;;;;;;11.06;49.06;99755.34;5050027;28;20028;-48
2024/03/26 01:29:20;;;;;;;11.32;4.70;;;;;;;11.17;49.00;99751.78;5050039;28;20090;-46
2024/03/26 01:31:46;;;;;;;10.57;4.40;;;;;;;11.15;48.62;99750.09;5049198;28;20043;-49
2024/03/26 01:34:11;;;;;;;10.75;4.10;;;;;;;10.77;49.80;99745.97;5049537;28;20059;-45
2024/03/26 01:36:36;;;;;;;11.07;4.20;;;;;;;11.15;48.96;99744.88;5049956;28;20091;-46
2024/03/26 01:39:02;;;;;;;14.55;4.25;;;;;;;10.87;49.57;99741.56;5051699;28;20028;-45
2024/03/26 01:41:27;;;;;;;14.63;4.35;;;;;;;11.21;48.17;99740.47;5050107;28;20605;-47
2024/03/26 01:43:52;;;;;;;12.88;4.32;;;;;;;10.95;48.79;99727.59;5049412;28;20033;-49
2024/03/26 01:46:18;;;;;;;12.18;4.28;;;;;;;10.63;49.77;99728.66;5049626;28;20499;-45
2024/03/26 01:48:44;;;;;;;12.40;4.35;;;;;;;11.30;48.31;99722.13;5049526;28;20037;-44
2024/03/26 01:51:09;;;;;;;14.43;4.55;;;;;;;11.43;47.84;99717.69;5049856;28;20033;-45
2024/03/26 01:53:36;;;;;;;9.43;4.35;;;;;;;11.15;48.54;99717.03;5049477;28;20049;-48
2024/03/26 01:56:02;;;;;;;11.18;4.43;;;;;;;11.15;48.97;99719.66;5049679;28;20033;-45
2024/03/26 01:58:27;;;;;;;12.25;4.47;;;;;;;11.06;48.90;99718.84;5049753;28;20037;-49
2024/03/26 02:00:54;;;;;;;11.45;4.38;;;;;;;10.75;49.90;99705.13;5050171;28;20053;-45
2024/03/26 02:03:19;;;;;;;16.15;4.57;;;;;;;10.61;50.29;99710.44;5049001;28;20029;-45
2024/03/26 02:05:45;;;;;;;13.93;4.10;;;;;;;11.07;49.05;99703.19;5048886;28;20094;-45
2024/03/26 02:08:11;;;;;;;11.60;4.32;;;;;;;10.87;49.01;99692.88;5049940;28;20484;-46
2024/03/26 02:10:37;;;;;;;9.73;4.30;;;;;;;11.10;48.82;99694.47;5049323;28;20095;-46
2024/03/26 02:13:03;;;;;;;14.63;4.78;;;;;;;11.06;48.78;99695.38;5049289;28;20033;-45
2024/03/26 02:15:29;;;;;;;9.43;4.35;;;;;;;10.98;49.08;99692.81;5049222;28;20736;-46
2024/03/26 02:17:54;;;;;;;11.63;4.47;;;;;;;11.00;48.75;99685.84;5049628;28;20055;-48
2024/03/26 02:20:23;;;;;;;9.98;4.45;;;;;;;10.53;49.86;99687.03;5049766;28;20407;-43
2024/03/26 02:22:54;;;;;;;13.30;4.63;;;;;;;10.88;48.91;99680.72;5048831;28;20037;-44
2024/03/26 02:25:20;;;;;;;11.05;4.30;;;;;;;10.73;49.51;99679.09;5049286;28;20033;-45
2024/03/26 02:27:45;;;;;;;8.50;4.03;;;;;;;10.42;50.06;99675.78;5050425;28;20128;-45
2024/03/26 02:30:11;;;;;;;10.10;4.60;;;;;;;10.53;49.33;99660.97;5054399;28;20033;-48
2024/03/26 02:32:36;;;;;;;10.45;4.47;;;;;;;10.61;49.60;99657.44;5054857;28;20041;-45
2024/03/26 02:35:01;;;;;;;10.85;4.25;;;;;;;10.95;48.63;99656.34;5053646;28;20127;-44
2024/03/26 02:37:26;;;;;;;11.50;4.50;;;;;;;10.82;49.22;99654.69;5054704;28;20029;-47
2024/03/26 02:39:52;;;;;;;11.30;4.20;;;;;;;10.68;49.42;99656.50;5055211;28;20503;-44
2024/03/26 02:42:17;;;;;;;15.07;4.57;;;;;;;10.80;49.27;99656.44;5055890;28;20056;-45
2024/03/26 02:44:42;;;;;;;10.02;3.92;;;;;;;10.75;49.56;99643.44;5054525;28;20041;-46
2024/03/26 02:47:08;;;;;;;11.00;4.30;;;;;;;10.48;50.55;99631.47;5055060;28;20064;-45
2024/03/26 02:49:33;;;;;;;11.68;4.20;;;;;;;10.67;49.66;99640.03;5055713;28;20575;-47
2024/03/26 02:51:58;;;;;;;10.90;4.38;;;;;;;10.57;49.83;99638.34;5055701;28;20028;-43
2024/03/26 02:54:23;;;;;;;14.95;4.30;;;;;;;10.64;49.81;99631.34;5056188;28;20063;-46
2024/03/26 02:56:49;;;;;;;10.68;4.25;;;;;;;10.12;50.90;99629.03;5055531;28;20068;-44
2024/03/26 02:59:14;;;;;;;13.00;4.75;;;;;;;10.45;50.38;99625.38;5054332;28;20035;-45
2024/03/26 03:01:39;;;;;;;11.13;4.55;;;;;;;10.61;50.40;99627.03;5052413;28;20450;-49
2024/03/26 03:04:05;;;;;;;10.57;4.43;;;;;;;10.69;50.38;99625.22;5052551;28;20044;-45
2024/03/26 03:06:30;;;;;;;12.30;4.55;;;;;;;10.38;50.87;99619.34;5052178;28;20096;-46
2024/03/26 03:08:55;;;;;;;11.95;5.25;;;;;;;10.69;50.20;99608.72;5052651;28;20040;-44
2024/03/26 03:11:20;;;;;;;13.07;4.57;;;;;;;10.51;51.01;99612.31;5052579;28;20100;-46
2024/03/26 03:13:46;;;;;;;13.98;4.63;;;;;;;10.58;50.92;99608.81;5052338;28;20029;-51
2024/03/26 03:16:11;;;;;;;11.18;4.75;;;;;;;10.64;50.61;99600.94;5052529;28;20029;-46
2024/03/26 03:18:36;;;;;;;12.10;4.65;;;;;;;10.16;51.67;99595.19;5051937;28;20036;-46
2024/03/26 03:21:02;;;;;;;11.77;4.55;;;;;;;10.57;51.07;99605.34;5052146;28;20094;-46
2024/03/26 03:23:28;;;;;;;10.55;4.43;;;;;;;10.40;50.89;99596.75;5051463;28;20055;-47
2024/03/26 03:25:54;;;;;;;13.60;5.50;;;;;;;10.45;51.49;99596.72;5052053;28;20474;-45
2024/03/26 03:28:19;;;;;;;11.88;4.82;;;;;;;10.30;51.62;99589.03;5050582;28;20047;-45
2024/03/26 03:30:44;;;;;;;8.70;4.25;;;;;;;10.47;51.15;99582.81;5051392;28;20048;-44
2024/03/26 03:33:10;;;;;;;11.23;4.72;;;;;;;10.19;51.67;99583.84;5051683;28;20045;-47
2024/03/26 03:35:39;;;;;;;12.07;4.90;;;;;;;10.66;50.89;99582.69;5051466;28;20041;-47
2024/03/26 03:38:04;;;;;;;10.25;4.63;;;;;;;10.60;50.53;99574.94;5050736;28;20094;-45
2024/03/26 03:40:30;;;;;;;10.77;4.75;;;;;;;10.43;51.22;99573.28;5050546;28;20487;-45
2024/03/26 03:42:55;;;;;;;13.90;4.80;;;;;;;10.17;51.29;99567.41;5052001;28;20442;-46
2024/03/26 03:45:20;;;;;;;10.77;4.55;;;;;;;9.99;52.36;99560.53;5052699;28;20041;-45
2024/03/26 03:47:45;;;;;;;13.80;4.65;;;;;;;10.61;50.47;99564.50;5052729;28;20155;-49
2024/03/26 03:50:11;;;;;;;10.88;4.40;;;;;;;10.67;50.43;99559.22;5051402;28;20064;-45
2024/03/26 03:52:36;;;;;;;10.88;4.63;;;;;;;10.45;51.09;99549.81;5051378;28;20491;-46
2024/03/26 03:55:01;;;;;;;11.20;4.47;;;;;;;9.98;51.32;99543.16;5051290;28;20033;-45
2024/03/26 03:57:26;;;;;;;9.07;4.47;;;;;;;10.26;50.93;99548.22;5051651;28;20127;-44
2024/03/26 03:59:52;;;;;;;10.38;4.80;;;;;;;10.44;50.70;99538.53;5051021;28;20025;-47
2024/03/26 04:02:17;;;;;;;9.30;4.15;;;;;;;10.32;50.73;99548.19;5051496;28;20253;-44
2024/03/26 04:04:43;;;;;;;10.68;4.68;;;;;;;10.27;50.96;99544.75;5050369;28;20045;-45
2024/03/26 04:07:08;;;;;;;9.38;4.10;;;;;;;10.30;51.15;99548.22;5052392;28;20052;-46
2024/03/26 04:09:33;;;;;;;10.52;4.50;;;;;;;10.33;51.20;99536.88;5053896;28;20044;-44
2024/03/26 04:11:59;;;;;;;9.45;4.15;;;;;;;10.02;51.57;99526.63;5054940;28;20029;-46
2024/03/26 04:14:24;;;;;;;14.30;4.80;;;;;;;10.32;51.20;99532.56;5053308;28;20556;-45
2024/03/26 04:16:49;;;;;;;12.15;4.57;;;;;;;10.06;51.44;99530.94;5050591;28;20040;-45
2024/03/26 04:19:15;;;;;;;11.25;4.18;;;;;;;10.33;50.68;99527.34;5051109;28;20029;-47
2024/03/26 04:21:40;;;;;;;11.63;4.78;;;;;;;10.30;51.41;99526.50;5050942;28;20414;-44
2024/03/26 04:24:06;;;;;;;13.25;4.57;;;;;;;10.27;50.67;99529.97;5050564;28;20045;-46
2024/03/26 04:26:33;;;;;;;14.90;4.80;;;;;;;9.99;52.23;99525.81;5050506;28;20068;-45
2024/03/26 04:28:58;;;;;;;9.65;4.65;;;;;;;10.30;50.71;99522.16;5051032;28;20037;-47
2024/03/26 04:31:23;;;;;;;12.88;4.40;;;;;;;9.88;51.88;99514.59;5050998;28;20033;-47
2024/03/26 04:33:49;;;;;;;10.98;4.53;;;;;;;10.24;50.91;99517.00;5049890;28;20116;-45
2024/03/26 04:36:14;;;;;;;13.30;5.00;;;;;;;9.80;51.92;99506.81;5050673;28;20041;-45
2024/03/26 04:38:39;;;;;;;12.52;5.00;;;;;;;10.01;51.54;99513.63;5049988;28;20439;-46
2024/03/26 04:41:04;;;;;;;12.57;5.05;;;;;;;10.10;51.62;99508.38;5050088;28;20068;-46
2024/03/26 04:43:30;;;;;;;16.67;5.53;;;;;;;9.94;51.46;99504.16;5050127;28;20033;-47
2024/03/26 04:45:55;;;;;;;12.57;5.10;;;;;;;10.02;51.66;99505.81;5049387;28;20037;-46
2024/03/26 04:48:20;;;;;;;9.70;4.70;;;;;;;9.93;51.50;99508.47;5051037;28;20404;-45
2024/03/26 04:50:46;;;;;;;16.73;5.13;;;;;;;9.71;52.63;99499.91;5050590;28;20033;-47
2024/03/26 04:53:11;;;;;;;11.70;5.00;;;;;;;10.05;51.46;99503.19;5050526;28;20037;-45
2024/03/26 04:55:36;;;;;;;10.40;4.90;;;;;;;10.21;50.97;99505.72;5050739;28;20496;-44
2024/03/26 04:58:02;;;;;;;11.63;4.60;;;;;;;9.60;52.51;99508.63;5052452;28;20039;-44
2024/03/26 05:00:27;;;;;;;9.48;4.20;;;;;;;10.02;51.89;99503.22;5051611;28;20044;-48
2024/03/26 05:02:52;;;;;;;13.50;5.45;;;;;;;9.87;51.91;99510.25;5049200;28;20067;-44
2024/03/26 05:05:18;;;;;;;12.32;5.13;;;;;;;10.08;51.44;99510.97;5050501;28;20104;-44
2024/03/26 05:07:43;;;;;;;12.38;4.80;;;;;;;10.05;51.53;99500.59;5050768;28;20080;-46
2024/03/26 05:10:09;;;;;;;12.23;5.05;;;;;;;9.58;52.79;99495.63;5051155;28;20194;-46
2024/03/26 05:12:35;;;;;;;9.73;5.03;;;;;;;10.05;51.78;99498.00;5049466;28;20041;-45
2024/03/26 05:15:00;;;;;;;11.70;4.80;;;;;;;9.62;52.81;99492.16;5050215;28;20435;-45
2024/03/26 05:17:26;;;;;;;13.30;4.90;;;;;;;9.77;53.13;99506.81;5051905;28;20037;-43
2024/03/26 05:19:51;;;;;;;9.95;4.75;;;;;;;9.65;52.77;99496.47;5050362;28;20379;-48
2024/03/26 05:22:17;;;;;;;11.18;5.15;;;;;;;9.50;53.44;99488.75;5049875;28;20040;-44
2024/03/26 05:24:43;;;;;;;13.30;4.43;;;;;;;9.75;52.98;99498.19;5049011;28;20061;-47
2024/03/26 05:27:08;;;;;;;11.57;5.13;;;;;;;9.31;53.61;99491.44;5050084;28;20037;-47
2024/03/26 05:29:34;;;;;;;12.27;5.13;;;;;;;9.82;52.55;99496.41;5049181;28;20041;-48
2024/03/26 05:31:59;;;;;;;17.42;5.32;;;;;;;9.83;52.46;99495.50;5049905;28;20044;-45
2024/03/26 05:34:25;;;;;;;13.30;5.15;;;;;;;9.56;53.92;99493.94;5049589;28;20491;-45
2024/03/26 05:36:50;;;;;;;10.70;4.78;;;;;;;9.32;53.91;99495.75;5049061;28;20033;-46
2024/03/26 05:39:15;;;;;;;11.23;5.10;;;;;;;9.59;53.66;99493.91;5049640;28;20123;-44
2024/03/26 05:41:41;;;;;;;13.00;4.88;;;;;;;9.27;53.64;99494.88;5049247;28;20044;-46
2024/03/26 05:44:06;;;;;;;10.63;5.50;;;;;;;9.74;53.09;99483.44;5049407;28;20415;-48
2024/03/26 05:46:33;;;;;;;11.63;5.07;;;;;;;10.08;51.80;99486.66;5049234;28;20492;-44
2024/03/26 05:48:58;;;;;;;10.48;5.10;;;;;;;9.75;52.98;99491.22;5049849;28;20072;-45
2024/03/26 05:51:24;;;;;;;12.68;5.35;;;;;;;9.86;52.73;99492.91;5049817;28;20064;-45
2024/03/26 05:53:49;;;;;;;10.70;4.88;;;;;;;9.98;52.48;99485.88;5049379;28;20564;-47
2024/03/26 05:56:14;;;;;;;15.75;5.57;;;;;;;9.84;52.93;99486.84;5049626;28;20033;-46
2024/03/26 05:58:39;;;;;;;12.07;5.20;;;;;;;9.82;52.87;99481.63;5049754;28;20033;-46
2024/03/26 06:01:05;;;;;;;10.93;4.88;;;;;;;9.97;52.56;99484.16;5049816;28;20029;-43
2024/03/26 06:03:31;;;;;;;11.00;4.97;;;;;;;10.08;52.25;99474.53;5052079;28;20557;-45
2024/03/26 06:05:56;;;;;;;10.48;4.95;;;;;;;10.09;52.46;99486.66;5053866;28;20053;-46
2024/03/26 06:08:22;;;;;;;12.27;5.28;;;;;;;10.27;51.89;99479.63;5053514;28;20037;-45
2024/03/26 06:10:47;;;;;;;13.18;5.18;;;;;;;10.27;51.75;99469.22;5053120;28;20134;-45
2024/03/26 06:13:13;;;;;;;13.48;5.00;;;;;;;10.44;51.58;99469.94;5053799;28;20032;-43
2024/03/26 06:15:38;;;;;;;12.00;5.57;;;;;;;10.06;51.74;99471.06;5053968;28;20028;-45
2024/03/26 06:18:04;;;;;;;11.10;4.95;;;;;;;10.26;51.67;99475.28;5054485;28;20483;-46
2024/03/26 06:20:29;;;;;;;13.48;5.35;;;;;;;10.03;51.83;99465.00;5052757;28;20072;-44
2024/03/26 06:22:55;;;;;;;8.57;5.03;;;;;;;10.37;51.39;99460.47;5053168;28;20033;-47
2024/03/26 06:25:20;;;;;;;12.25;5.15;;;;;;;10.29;51.34;99451.84;5054792;28;20406;-48
2024/03/26 06:27:45;;;;;;;16.65;5.10;;;;;;;10.39;51.18;99449.13;5055413;28;20079;-43
2024/03/26 06:30:11;;;;;;;9.73;5.20;;;;;;;10.64;50.61;99441.97;5055859;28;20040;-44
2024/03/26 06:32:36;;;;;;;10.10;4.95;;;;;;;11.12;49.47;99435.34;5054526;28;20439;-45
2024/03/26 06:35:02;;;;;;;12.10;5.35;;;;;;;10.96;49.66;99437.28;5053736;28;20041;-45
2024/03/26 06:37:28;;;;;;;11.90;5.15;;;;;;;11.28;48.86;99442.09;5052442;28;20051;-44
2024/03/26 06:39:53;;;;;;;10.43;4.88;;;;;;;11.40;48.44;99436.72;5052975;28;20033;-44
2024/03/26 06:42:18;;;;;;;11.85;5.00;;;;;;;11.83;47.61;99430.97;5053774;28;20029;-45
2024/03/26 06:44:44;;;;;;;10.38;5.10;;;;;;;11.81;46.36;99429.25;5052181;28;20112;-44
2024/03/26 06:47:10;;;;;;;9.68;4.80;;;;;;;12.37;45.99;99410.94;5052785;28;20051;-47
2024/03/26 06:49:36;;;;;;;11.32;4.50;;;;;;;12.17;45.49;99418.25;5051015;28;20065;-46
2024/03/26 06:52:02;;;;;;;11.38;4.80;;;;;;;12.22;45.44;99418.16;5052990;28;20033;-46
2024/03/26 06:54:27;;;;;;;13.13;5.05;;;;;;;12.67;44.71;99417.38;5052824;28;20033;-50
2024/03/26 06:56:53;;;;;;;14.55;4.65;;;;;;;12.62;44.55;99416.63;5053658;28;20044;-46
2024/03/26 06:59:18;;;;;;;8.93;4.88;;;;;;;12.17;44.49;99411.28;5054999;28;20033;-45
2024/03/26 07:01:43;;;;;;;11.18;4.93;;;;;;;12.18;45.03;99412.13;5053779;28;20510;-44
2024/03/26 07:04:09;;;;;;;9.95;5.07;;;;;;;12.45;44.75;99408.19;5054396;28;20675;-44
2024/03/26 07:06:34;;;;;;;12.98;5.00;;;;;;;12.47;44.31;99399.44;5053546;28;20043;-45
2024/03/26 07:08:59;;;;;;;9.48;4.47;;;;;;;12.56;44.56;99401.03;5052730;28;20029;-43
2024/03/26 07:11:24;;;;;;;11.35;4.85;;;;;;;12.69;44.01;99394.66;5052562;28;20399;-45
2024/03/26 07:13:50;;;;;;;12.38;5.00;;;;;;;12.45;43.74;99388.13;5051164;28;20124;-47
2024/03/26 07:16:15;;;;;;;8.98;4.72;;;;;;;12.84;43.02;99386.53;5052023;28;20025;-45
2024/03/26 07:18:41;;;;;;;9.23;4.25;;;;;;;13.29;42.40;99383.94;5051947;28;20122;-45
2024/03/26 07:21:06;;;;;;;10.40;4.63;;;;;;;13.10;42.14;99382.56;5051914;28;20078;-46
2024/03/26 07:23:31;;;;;;;10.63;4.55;;;;;;;12.85;42.45;99382.19;5051356;28;20037;-45
2024/03/26 07:25:57;;;;;;;10.18;4.47;;;;;;;13.13;42.81;99387.72;5051772;28;20116;-46
2024/03/26 07:28:22;;;;;;;10.57;4.85;;;;;;;13.75;41.63;99384.63;5052080;28;20499;-46
2024/03/26 07:30:48;;;;;;;11.15;4.70;;;;;;;12.95;42.41;99381.09;5051895;28;20040;-45
2024/03/26 07:33:13;;;;;;;12.93;4.82;;;;;;;13.64;41.66;99384.00;5052193;28;20036;-44
2024/03/26 07:35:39;;;;;;;8.75;4.43;;;;;;;13.61;41.78;99385.81;5051381;28;20044;-46
2024/03/26 07:38:05;;;;;;;11.25;4.60;;;;;;;13.84;41.29;99388.78;5051817;28;20040;-46
2024/03/26 07:40:30;;;;;;;9.45;4.43;;;;;;;13.88;41.65;99386.94;5050365;28;20029;-46
2024/03/26 07:42:56;;;;;;;9.00;4.57;;;;;;;13.27;42.04;99376.09;5051709;28;20033;-46
2024/03/26 07:45:21;;;;;;;12.98;5.00;;;;;;;13.42;42.58;99372.28;5051635;28;20396;-47
2024/03/26 07:47:47;;;;;;;12.18;5.30;;;;;;;13.47;43.09;99373.06;5049982;28;20048;-45
2024/03/26 07:50:12;;;;;;;12.65;5.40;;;;;;;13.28;43.49;99369.13;5051923;28;20044;-46
2024/03/26 07:52:37;;;;;;;12.38;5.72;;;;;;;13.19;43.80;99364.91;5051018;28;20045;-45
2024/03/26 07:55:03;;;;;;;14.15;5.80;;;;;;;13.07;44.22;99366.91;5051746;28;20039;-46
2024/03/26 07:57:28;;;;;;;9.63;5.10;;;;;;;13.17;43.89;99364.13;5052324;28;20041;-44
2024/03/26 07:59:54;;;;;;;9.93;5.20;;;;;;;13.57;43.24;99360.59;5052224;28;20032;-47
2024/03/26 08:02:19;;;;;;;12.70;5.30;;;;;;;13.49;43.63;99362.53;5052411;28;20124;-46
2024/03/26 08:04:46;;;;;;;11.73;5.05;;;;;;;12.90;44.44;99356.78;5051895;28;20143;-46
2024/03/26 08:07:11;;;;;;;10.75;5.00;;;;;;;12.71;44.74;99347.56;5053090;28;20037;-47
2024/03/26 08:09:37;;;;;;;11.20;5.18;;;;;;;13.24;44.30;99355.22;5053590;28;20037;-44
2024/03/26 08:12:03;;;;;;;11.77;5.57;;;;;;;12.93;44.32;99356.72;5053557;28;20032;-44
2024/03/26 08:14:29;;;;;;;10.75;5.38;;;;;;;13.14;44.44;99358.06;5051742;28;20029;-44
2024/03/26 08:16:55;;;;;;;13.07;4.85;;;;;;;13.12;44.35;99346.72;5052067;28;20386;-46
2024/03/26 08:19:20;;;;;;;11.68;5.18;;;;;;;13.01;44.42;99341.72;5051842;28;20095;-43
2024/03/26 08:21:46;;;;;;;12.25;5.18;;;;;;;13.03;44.23;99339.94;5054113;28;20155;-44
2024/03/26 08:24:11;;;;;;;8.45;4.75;;;;;;;12.53;44.28;99349.66;5054775;28;20029;-45
2024/03/26 08:26:36;;;;;;;10.20;4.93;;;;;;;12.75;44.91;99344.00;5054735;28;20060;-44
2024/03/26 08:29:02;;;;;;;9.20;4.75;;;;;;;12.63;44.86;99334.66;5055058;28;20399;-43
2024/03/26 08:31:29;;;;;;;10.93;4.82;;;;;;;12.84;44.85;99336.84;5056121;28;20446;-45
2024/03/26 08:33:54;;;;;;;9.15;5.05;;;;;;;12.75;44.75;99338.78;5056679;28;20025;-45
2024/03/26 08:36:22;;;;;;;8.95;4.95;;;;;;;12.61;45.50;99328.59;5056871;28;20033;-44
2024/03/26 08:38:47;;;;;;;10.43;5.20;;;;;;;12.92;45.03;99336.69;5057382;28;20032;-45
2024/03/26 08:41:13;;;;;;;12.05;4.93;;;;;;;13.27;44.38;99331.59;5056807;28;20037;-43
2024/03/26 08:43:38;;;;;;;12.65;5.35;;;;;;;13.26;44.37;99327.25;5052427;28;20713;-45
2024/03/26 08:46:04;;;;;;;9.57;5.05;;;;;;;13.29;44.69;99324.59;5051002;28;20045;-44
2024/03/26 08:48:29;;;;;;;10.10;4.97;;;;;;;13.22;44.49;99317.75;5050582;28;20510;-45
2024/03/26 08:50:55;;;;;;;9.77;5.43;;;;;;;12.99;44.68;99327.84;5051286;28;20044;-45
2024/03/26 08:53:20;;;;;;;11.75;5.15;;;;;;;13.31;44.55;99319.28;5051905;28;20052;-46
2024/03/26 08:55:45;;;;;;;12.90;5.38;;;;;;;13.22;44.24;99320.38;5050930;28;20033;-45
2024/03/26 08:58:11;;;;;;;8.90;5.30;;;;;;;13.70;43.78;99318.38;5051405;28;20032;-46
2024/03/26 09:00:38;;;;;;;14.38;5.30;;;;;;;13.94;43.46;99316.06;5050461;28;20033;-44
2024/03/26 09:03:04;;;;;;;11.43;5.32;;;;;;;13.71;44.27;99304.41;5050647;28;20090;-47
2024/03/26 09:05:31;;;;;;;10.40;5.15;;;;;;;13.55;43.99;99317.88;5049660;28;20136;-45
2024/03/26 09:07:56;;;;;;;10.48;5.30;;;;;;;13.94;43.30;99313.44;5052474;28;20114;-45
2024/03/26 09:10:21;;;;;;;10.75;5.47;;;;;;;13.89;42.90;99299.59;5052632;28;20036;-44
2024/03/26 09:12:47;;;;;;;10.88;4.82;;;;;;;13.73;42.96;99305.19;5051202;28;22249;-44
2024/03/26 09:15:13;;;;;;;12.20;5.28;;;;;;;13.67;43.06;99292.25;5050278;28;20052;-45
2024/03/26 09:17:38;;;;;;;13.07;5.45;;;;;;;13.95;42.86;99294.22;5050336;28;20037;-47
2024/03/26 09:20:07;;;;;;;11.32;5.20;;;;;;;13.98;42.68;99289.75;5051008;28;20116;-49
2024/03/26 09:22:32;;;;;;;9.30;5.35;;;;;;;13.97;43.10;99282.78;5050630;28;20116;-45
2024/03/26 09:24:57;;;;;;;11.43;5.20;;;;;;;13.98;42.96;99275.78;5050108;28;20057;-46
2024/03/26 09:27:23;;;;;;;9.98;4.95;;;;;;;14.11;42.85;99271.94;5050761;28;20534;-46
2024/03/26 09:29:49;;;;;;;10.40;5.10;;;;;;;14.19;42.69;99267.38;5050480;28;20549;-44
2024/03/26 09:32:14;;;;;;;10.45;5.13;;;;;;;13.99;42.58;99267.03;5050755;28;20075;-45
2024/03/26 09:34:39;;;;;;;9.32;5.10;;;;;;;14.17;42.62;99259.53;5050406;28;20037;-43
2024/03/26 09:37:06;;;;;;;9.98;4.88;;;;;;;14.25;42.69;99267.19;5050483;28;20047;-46
2024/03/26 09:39:33;;;;;;;11.00;5.40;;;;;;;14.64;42.29;99270.50;5050042;28;20076;-43
2024/03/26 09:42:02;;;;;;;11.25;5.18;;;;;;;14.83;42.02;99265.56;5050005;28;20036;-44
2024/03/26 09:44:29;;;;;;;9.77;5.53;;;;;;;14.81;42.23;99260.41;5049096;28;20033;-44
2024/03/26 09:46:56;;;;;;;9.50;5.10;;;;;;;15.14;41.44;99262.88;5050709;28;20450;-43
2024/03/26 09:49:22;;;;;;;10.05;5.70;;;;;;;14.90;41.32;99261.88;5052481;28;20128;-44
2024/03/26 09:51:51;;;;;;;11.68;5.50;;;;;;;15.05;41.22;99263.19;5051763;28;20087;-44
2024/03/26 09:54:16;;;;;;;10.32;5.30;;;;;;;15.29;41.39;99257.19;5051552;28;20025;-44
2024/03/26 09:56:42;;;;;;;16.15;5.43;;;;;;;15.33;41.05;99258.78;5049156;28;20037;-45
2024/03/26 09:59:07;;;;;;;13.38;5.57;;;;;;;15.26;41.22;99250.25;5049981;28;20028;-44
2024/03/26 10:01:33;;;;;;;10.60;5.07;;;;;;;15.54;40.64;99250.28;5049230;28;20511;-46
2024/03/26 10:03:59;;;;;;;8.43;4.75;;;;;;;15.52;40.56;99246.81;5049510;28;20033;-46
2024/03/26 10:06:25;;;;;;;11.70;5.15;;;;;;;15.68;40.33;99245.41;5049749;28;20037;-45
2024/03/26 10:08:52;;;;;;;12.75;5.30;;;;;;;15.59;40.32;99237.84;5049536;28;20029;-45
2024/03/26 10:11:20;;;;;;;10.15;5.28;;;;;;;15.67;39.83;99237.59;5049623;28;20531;-45
2024/03/26 10:13:45;;;;;;;8.27;5.10;;;;;;;15.33;40.59;99238.66;5048909;28;20394;-45
2024/03/26 10:16:11;;;;;;;8.93;4.93;;;;;;;15.54;40.09;99238.91;5047905;28;20044;-44
2024/03/26 10:18:36;;;;;;;8.80;5.28;;;;;;;15.46;40.39;99241.75;5049113;28;20128;-46
2024/03/26 10:21:05;;;;;;;11.52;5.35;;;;;;;15.62;40.03;99234.25;5049788;28;20031;-44
2024/03/26 10:23:30;;;;;;;9.70;5.07;;;;;;;15.62;40.39;99223.72;5048871;28;20542;-45
2024/03/26 10:25:57;;;;;;;8.73;4.97;;;;;;;15.46;40.67;99220.72;5049445;28;20076;-46
2024/03/26 10:28:23;;;;;;;10.10;5.35;;;;;;;15.27;40.86;99214.34;5049627;28;20029;-43
2024/03/26 10:30:52;;;;;;;9.43;5.10;;;;;;;15.43;40.74;99212.94;5048788;28;20040;-46
2024/03/26 10:33:19;;;;;;;10.52;5.28;;;;;;;15.66;40.30;99202.59;5049180;28;20557;-45
2024/03/26 10:35:49;;;;;;;9.98;5.05;;;;;;;15.63;40.88;99205.28;5049818;28;20064;-45
2024/03/26 10:38:15;;;;;;;12.80;5.28;;;;;;;15.25;40.64;99205.66;5049564;28;20609;-46
2024/03/26 10:41:00;;;;;;;10.43;5.32;;;;;;;15.61;40.83;99201.03;5049065;28;20111;-46
2024/03/26 10:43:28;;;;;;;;;;;;;;;15.58;40.69;99198.47;5049629;28;20044;-45
2024/03/26 10:45:54;;;;;;;11.10;5.55;;;;;;;15.37;41.08;99197.38;5048878;28;19924;-47
2024/03/26 10:48:24;;;;;;;13.63;5.60;;;;;;;15.39;41.42;99185.94;5052163;28;20051;-45
2024/03/26 10:50:52;;;;;;;11.82;5.30;;;;;;;15.67;41.14;99180.66;5054913;28;20032;-44
2024/03/26 10:53:20;;;;;;;9.98;5.50;;;;;;;15.80;40.63;99181.94;5052802;28;20036;-47
2024/03/26 10:55:45;;;;;;;9.63;5.30;;;;;;;15.86;40.73;99183.47;5051896;28;20112;-47
2024/03/26 10:58:11;;;;;;;9.50;5.40;;;;;;;15.89;40.64;99186.03;5053050;28;20045;-45
2024/03/26 11:00:38;;;;;;;10.60;5.35;;;;;;;16.09;40.53;99174.81;5052395;28;20057;-48
2024/03/26 11:03:05;;;;;;;14.68;5.38;;;;;;;16.11;40.76;99181.72;5054851;28;20095;-46
2024/03/26 11:05:31;;;;;;;9.10;5.20;;;;;;;15.80;41.03;99176.69;5053549;28;20110;-46
2024/03/26 11:07:56;;;;;;;11.43;5.38;;;;;;;16.02;41.19;99168.91;5052506;28;20488;-45
2024/03/26 11:10:22;;;;;;;11.15;5.72;;;;;;;16.15;41.08;99171.97;5052512;28;20075;-46
2024/03/26 11:12:51;;;;;;;9.38;5.38;;;;;;;15.73;41.27;99169.94;5052728;28;20048;-44
2024/03/26 11:15:16;;;;;;;11.80;5.53;;;;;;;15.90;41.26;99171.13;5054246;28;20040;-45
2024/03/26 11:17:55;;;;;;;11.13;5.50;;;;;;;16.33;40.87;99167.78;5053673;28;20041;-45
2024/03/26 11:20:21;;;;;;;9.07;5.60;;;;;;;16.17;40.95;99167.47;5052888;28;20488;-45
2024/03/26 11:23:06;;;;;;;10.50;5.40;;;;;;;16.34;40.18;99172.16;5051714;28;20039;-45